Time;durP1;ratioP1;P1;durP2;ratioP2;P2;SDS_P1;SDS_P2;PMS_P1;PMS_P2;Temp;Humidity;BMP_temperature;BMP_pressure;BME280_temperature;BME280_humidity;BME280_pressure;Samples;Min_cycle;Max_cycle;Signal;HPM_P1;HPM_P2
2022/03/16 00:00:10;;;;;;;51.90;22.90;;;;;;;8.53;57.48;99810.52;103593;1300;24364;-28
2022/03/16 00:02:36;;;;;;;40.60;16.90;;;;;;;8.49;57.70;99814.41;103435;1302;24196;-24
2022/03/16 00:05:02;;;;;;;45.60;20.70;;;;;;;8.37;57.70;99813.20;103624;1300;24378;-28
2022/03/16 00:07:28;;;;;;;44.00;22.60;;;;;;;8.38;57.83;99810.95;103514;1300;24205;-26
2022/03/16 00:09:54;;;;;;;35.20;18.30;;;;;;;8.32;58.00;99810.48;103591;1300;24214;-25
2022/03/16 00:12:19;;;;;;;41.40;17.00;;;;;;;8.35;57.58;99812.12;103539;1300;24399;-28
2022/03/16 00:14:45;;;;;;;45.30;18.30;;;;;;;8.18;58.56;99812.60;103655;1301;24234;-25
2022/03/16 00:17:11;;;;;;;41.40;21.30;;;;;;;8.13;58.41;99817.05;103547;1300;24214;-25
2022/03/16 00:19:39;;;;;;;29.60;15.80;;;;;;;8.13;58.18;99813.14;103556;1300;24221;-28
2022/03/16 00:22:04;;;;;;;30.90;11.90;;;;;;;8.14;58.40;99817.69;103632;1301;24214;-25
2022/03/16 00:24:30;;;;;;;41.10;16.20;;;;;;;8.18;58.15;99818.19;103507;1300;24383;-28
2022/03/16 00:26:56;;;;;;;36.90;14.50;;;;;;;8.14;58.15;99813.91;103590;1302;24234;-25
2022/03/16 00:29:22;;;;;;;25.10;13.80;;;;;;;8.17;59.12;99814.55;103586;1300;24214;-28
2022/03/16 00:31:48;;;;;;;21.90;12.40;;;;;;;7.93;59.47;99814.52;103497;1302;23337;-28
2022/03/16 00:34:13;;;;;;;22.50;13.00;;;;;;;7.93;59.18;99817.19;103545;1300;24267;-28
2022/03/16 00:36:39;;;;;;;27.00;15.00;;;;;;;8.01;58.86;99818.61;103546;1300;24346;-31
2022/03/16 00:39:05;;;;;;;28.00;13.30;;;;;;;8.02;58.90;99820.52;103570;1300;24195;-29
2022/03/16 00:41:32;;;;;;;16.30;9.90;;;;;;;8.05;58.53;99820.35;103590;1299;24214;-25
2022/03/16 00:43:58;;;;;;;19.40;11.00;;;;;;;8.07;58.02;99817.44;103608;1300;24454;-30
2022/03/16 00:46:24;;;;;;;15.70;8.90;;;;;;;8.14;58.08;99818.42;103572;1300;24247;-25
2022/03/16 00:48:49;;;;;;;16.70;10.30;;;;;;;8.20;58.12;99824.86;103520;1300;24215;-25
2022/03/16 00:51:15;;;;;;;13.60;7.70;;;;;;;8.08;58.62;99823.42;103520;1302;22924;-28
2022/03/16 00:53:41;;;;;;;15.00;9.80;;;;;;;7.99;59.47;99821.70;103591;1302;24084;-28
2022/03/16 00:56:08;;;;;;;13.30;9.20;;;;;;;7.86;60.20;99824.69;103626;1301;24196;-30
2022/03/16 00:58:35;;;;;;;16.50;10.60;;;;;;;7.77;61.83;99827.80;103524;1300;22503;-28
2022/03/16 01:01:01;;;;;;;14.70;8.40;;;;;;;7.73;61.40;99824.02;103540;1300;22505;-27
2022/03/16 01:03:28;;;;;;;17.50;9.40;;;;;;;7.60;62.88;99827.23;103576;1300;25048;-28
2022/03/16 01:05:53;;;;;;;16.50;9.50;;;;;;;7.47;64.37;99829.10;103524;1300;24342;-28
2022/03/16 01:08:19;;;;;;;21.40;10.90;;;;;;;7.51;62.40;99834.45;103489;1302;24365;-29
2022/03/16 01:10:45;;;;;;;14.00;9.40;;;;;;;7.59;63.10;99828.10;103554;1302;22518;-25
2022/03/16 01:13:11;;;;;;;11.40;7.70;;;;;;;7.53;63.38;99828.04;103618;1300;24281;-25
2022/03/16 01:15:36;;;;;;;14.90;9.10;;;;;;;7.37;64.38;99833.45;103585;1303;24195;-25
2022/03/16 01:18:02;;;;;;;13.80;9.60;;;;;;;7.29;64.45;99831.45;103559;1301;24238;-28
2022/03/16 01:20:28;;;;;;;19.10;12.20;;;;;;;7.22;64.62;99834.31;103532;1302;24324;-30
2022/03/16 01:22:54;;;;;;;23.00;11.80;;;;;;;7.16;64.79;99834.46;103585;1300;24373;-27
2022/03/16 01:25:19;;;;;;;14.40;10.00;;;;;;;7.10;65.19;99838.69;103484;1300;24372;-25
2022/03/16 01:27:45;;;;;;;21.20;12.80;;;;;;;7.03;65.36;99837.58;103622;1302;24340;-26
2022/03/16 01:30:13;;;;;;;19.20;10.50;;;;;;;6.91;67.30;99834.94;103488;1302;25007;-26
2022/03/16 01:32:39;;;;;;;21.80;13.60;;;;;;;6.84;68.34;99835.21;103596;1300;22746;-27
2022/03/16 01:35:06;;;;;;;20.40;14.10;;;;;;;6.77;67.23;99831.95;103612;1300;24373;-29
2022/03/16 01:37:32;;;;;;;30.10;19.40;;;;;;;6.64;68.61;99823.20;103605;1300;24311;-28
2022/03/16 01:39:58;;;;;;;21.80;16.90;;;;;;;6.55;68.37;99823.09;103575;1300;22620;-25
2022/03/16 01:42:23;;;;;;;22.40;12.80;;;;;;;6.59;67.37;99826.58;103634;1302;24351;-31
2022/03/16 01:44:50;;;;;;;19.40;12.00;;;;;;;6.60;68.45;99825.94;103562;1300;22743;-29
2022/03/16 01:47:18;;;;;;;20.00;10.80;;;;;;;6.61;67.60;99824.85;103639;1300;24211;-25
2022/03/16 01:49:44;;;;;;;17.80;12.70;;;;;;;6.56;67.86;99823.29;103696;1300;24298;-27
2022/03/16 01:52:10;;;;;;;21.60;11.40;;;;;;;6.51;67.99;99822.05;103692;1300;22967;-31
2022/03/16 01:54:38;;;;;;;20.20;12.60;;;;;;;6.45;69.08;99821.08;103706;1300;22540;-25
2022/03/16 01:57:05;;;;;;;17.40;11.60;;;;;;;6.38;70.35;99815.77;103563;1300;22505;-30
2022/03/16 01:59:31;;;;;;;18.20;12.30;;;;;;;6.36;69.74;99816.59;103544;1300;22771;-26
2022/03/16 02:01:58;;;;;;;20.80;11.80;;;;;;;6.32;69.56;99822.48;103566;1300;24444;-31
2022/03/16 02:04:23;;;;;;;16.90;10.20;;;;;;;6.24;70.67;99824.87;103510;1300;24377;-28
2022/03/16 02:06:49;;;;;;;23.00;11.30;;;;;;;6.15;72.03;99819.39;103550;1300;24215;-31
2022/03/16 02:09:15;;;;;;;19.00;12.10;;;;;;;6.06;75.60;99821.39;103591;1300;24409;-31
2022/03/16 02:11:41;;;;;;;16.60;11.50;;;;;;;6.01;73.62;99817.07;103503;1302;24232;-29
2022/03/16 02:14:07;;;;;;;24.00;13.90;;;;;;;5.96;73.98;99817.92;103601;1300;24330;-27
2022/03/16 02:16:34;;;;;;;38.10;22.90;;;;;;;5.92;74.80;99821.25;103668;1300;24210;-31
2022/03/16 02:18:59;;;;;;;24.50;15.00;;;;;;;5.84;75.34;99821.09;103678;1300;22511;-27
2022/03/16 02:21:26;;;;;;;21.50;14.60;;;;;;;5.77;75.30;99823.27;103652;1301;24244;-30
2022/03/16 02:23:52;;;;;;;50.00;17.60;;;;;;;5.69;75.97;99822.90;103558;1300;24341;-28
2022/03/16 02:26:18;;;;;;;36.50;16.30;;;;;;;5.60;79.14;99821.44;103670;1300;24199;-26
2022/03/16 02:28:44;;;;;;;19.00;11.30;;;;;;;5.53;78.99;99826.67;103760;1300;24233;-26
2022/03/16 02:31:10;;;;;;;19.50;13.10;;;;;;;5.50;81.28;99822.61;103630;1302;24264;-25
2022/03/16 02:33:35;;;;;;;25.20;16.40;;;;;;;5.47;77.74;99820.40;103681;1300;24248;-31
2022/03/16 02:36:01;;;;;;;23.00;14.20;;;;;;;5.42;76.88;99824.11;103617;1300;24263;-24
2022/03/16 02:38:27;;;;;;;27.80;17.10;;;;;;;5.33;77.20;99823.70;103600;1301;24367;-23
2022/03/16 02:40:52;;;;;;;26.40;14.00;;;;;;;5.26;78.61;99829.08;103551;1300;24452;-24
2022/03/16 02:43:18;;;;;;;34.20;16.90;;;;;;;5.23;79.73;99834.89;103584;1300;24212;-26
2022/03/16 02:45:44;;;;;;;37.10;20.90;;;;;;;5.24;77.99;99836.23;103502;1300;24249;-29
2022/03/16 02:48:09;;;;;;;78.40;49.40;;;;;;;5.23;78.16;99837.78;103595;1300;24411;-24
2022/03/16 02:50:35;;;;;;;54.90;34.50;;;;;;;5.20;77.74;99836.21;103508;1300;24222;-29
2022/03/16 02:53:01;;;;;;;41.70;19.40;;;;;;;5.19;78.01;99835.50;103571;1300;24245;-24
2022/03/16 02:55:26;;;;;;;35.60;19.00;;;;;;;5.18;78.78;99835.60;103580;1300;24231;-27
2022/03/16 02:57:52;;;;;;;30.80;16.30;;;;;;;5.20;78.54;99836.62;103502;1300;24356;-27
2022/03/16 03:00:18;;;;;;;21.10;12.60;;;;;;;5.20;81.93;99838.77;103427;1302;24305;-28
2022/03/16 03:02:44;;;;;;;26.50;14.00;;;;;;;5.14;86.44;99835.89;103549;1300;24311;-28
2022/03/16 03:05:10;;;;;;;34.80;18.00;;;;;;;5.11;87.81;99832.00;103559;1300;24301;-28
2022/03/16 03:07:36;;;;;;;28.70;18.00;;;;;;;5.06;88.60;99830.48;103587;1300;22693;-24
2022/03/16 03:10:02;;;;;;;35.20;17.90;;;;;;;5.03;88.60;99827.96;103570;1300;24306;-31
2022/03/16 03:12:27;;;;;;;32.80;18.20;;;;;;;4.99;89.26;99830.20;103593;1300;24191;-24
2022/03/16 03:14:53;;;;;;;25.70;15.90;;;;;;;4.94;89.01;99826.17;103584;1300;24363;-25
2022/03/16 03:17:19;;;;;;;32.50;16.60;;;;;;;4.90;90.08;99829.63;103540;1300;24246;-31
2022/03/16 03:19:48;;;;;;;32.10;16.00;;;;;;;4.88;89.98;99824.67;103546;1300;24224;-25
2022/03/16 03:22:14;;;;;;;30.20;16.30;;;;;;;4.87;90.49;99823.13;103548;1300;24341;-25
2022/03/16 03:24:40;;;;;;;30.60;15.70;;;;;;;4.83;91.42;99823.52;103550;1300;22670;-28
2022/03/16 03:27:06;;;;;;;27.30;14.50;;;;;;;4.81;92.45;99828.33;103584;1300;24236;-31
2022/03/16 03:29:31;;;;;;;25.60;15.50;;;;;;;4.77;93.04;99827.33;103551;1300;24192;-24
2022/03/16 03:31:57;;;;;;;32.60;17.70;;;;;;;4.74;92.63;99827.27;103576;1300;24242;-25
2022/03/16 03:34:22;;;;;;;23.30;15.10;;;;;;;4.74;91.36;99832.90;103492;1300;24342;-25
2022/03/16 03:36:48;;;;;;;23.70;15.00;;;;;;;4.74;93.33;99833.15;103528;1300;24302;-29
2022/03/16 03:39:14;;;;;;;30.60;17.50;;;;;;;4.65;95.18;99832.34;103557;1300;24218;-30
2022/03/16 03:41:40;;;;;;;27.00;15.00;;;;;;;4.61;95.35;99838.06;103567;1300;24253;-28
2022/03/16 03:44:06;;;;;;;25.80;16.70;;;;;;;4.64;94.32;99840.40;103566;1300;24429;-23
2022/03/16 03:46:31;;;;;;;24.50;13.30;;;;;;;4.62;95.50;99836.89;103524;1303;24250;-26
2022/03/16 03:48:57;;;;;;;26.80;14.50;;;;;;;4.48;98.35;99832.08;103525;1300;24215;-26
2022/03/16 03:51:23;;;;;;;26.30;15.30;;;;;;;4.37;99.75;99830.61;103513;1300;24221;-26
2022/03/16 03:53:48;;;;;;;29.20;16.10;;;;;;;4.35;99.82;99830.45;103570;1300;24367;-31
2022/03/16 03:56:15;;;;;;;25.00;14.00;;;;;;;4.38;98.09;99832.87;103506;1300;22505;-29
2022/03/16 03:58:40;;;;;;;22.50;12.40;;;;;;;4.30;99.39;99832.35;103613;1300;24195;-31
2022/03/16 04:01:06;;;;;;;24.30;13.60;;;;;;;4.15;100.00;99831.23;103524;1300;24432;-24
2022/03/16 04:03:32;;;;;;;20.90;13.60;;;;;;;4.18;100.00;99829.42;103540;1302;25459;-29
2022/03/16 04:05:59;;;;;;;30.90;14.80;;;;;;;4.16;100.00;99828.86;103523;1300;24245;-26
2022/03/16 04:08:25;;;;;;;22.10;12.20;;;;;;;4.11;100.00;99826.36;103562;1300;24255;-29
2022/03/16 04:10:51;;;;;;;21.60;14.40;;;;;;;4.14;100.00;99822.18;103624;1300;24278;-28
2022/03/16 04:13:16;;;;;;;20.30;10.30;;;;;;;4.17;100.00;99824.72;103118;1300;614712;-28
2022/03/16 04:15:42;;;;;;;33.70;15.30;;;;;;;4.22;100.00;99823.66;103519;1300;24368;-27
2022/03/16 04:18:08;;;;;;;25.40;16.20;;;;;;;4.27;100.00;99824.39;103630;1300;24311;-27
2022/03/16 04:20:33;;;;;;;27.40;16.30;;;;;;;4.29;100.00;99825.20;103485;1302;24362;-25
2022/03/16 04:22:59;;;;;;;25.70;15.90;;;;;;;4.31;99.73;99822.33;103568;1300;22504;-25
2022/03/16 04:25:25;;;;;;;33.30;14.30;;;;;;;4.37;98.62;99823.16;103537;1300;24221;-24
2022/03/16 04:27:51;;;;;;;18.80;10.20;;;;;;;4.50;97.69;99823.73;103590;1300;24305;-30
2022/03/16 04:30:17;;;;;;;14.70;9.30;;;;;;;4.47;97.82;99820.46;103531;1300;24173;-28
2022/03/16 04:32:43;;;;;;;25.70;14.00;;;;;;;4.54;97.89;99819.82;103586;1300;24397;-29
2022/03/16 04:35:09;;;;;;;24.60;10.30;;;;;;;4.52;98.37;99824.20;103550;1300;24198;-29
2022/03/16 04:37:36;;;;;;;32.40;18.40;;;;;;;4.39;99.53;99821.42;103578;1300;22607;-27
2022/03/16 04:40:02;;;;;;;35.40;17.90;;;;;;;4.37;99.73;99825.36;103655;1300;22629;-24
2022/03/16 04:42:28;;;;;;;29.70;16.40;;;;;;;4.31;99.92;99824.81;103572;1300;24318;-24
2022/03/16 04:44:53;;;;;;;25.70;17.40;;;;;;;4.31;99.67;99828.20;103589;1299;24189;-24
2022/03/16 04:47:19;;;;;;;38.00;19.20;;;;;;;4.16;100.00;99832.95;103606;1300;24388;-31
2022/03/16 04:49:46;;;;;;;44.70;19.60;;;;;;;4.04;100.00;99844.33;103585;1301;24255;-31
2022/03/16 04:52:12;;;;;;;30.50;18.40;;;;;;;3.90;100.00;99852.20;103576;1300;22606;-25
2022/03/16 04:54:38;;;;;;;35.10;18.40;;;;;;;3.88;100.00;99861.61;103582;1302;24169;-29
2022/03/16 04:57:04;;;;;;;28.20;16.10;;;;;;;3.92;100.00;99867.30;103605;1300;24259;-26
2022/03/16 04:59:30;;;;;;;33.20;17.40;;;;;;;3.93;100.00;99873.90;103674;1299;24210;-31
2022/03/16 05:01:55;;;;;;;35.40;18.90;;;;;;;3.93;100.00;99882.94;103576;1300;24427;-26
2022/03/16 05:04:21;;;;;;;36.80;17.90;;;;;;;3.98;100.00;99891.19;103648;1299;24264;-29
2022/03/16 05:06:47;;;;;;;36.60;17.70;;;;;;;4.01;100.00;99905.82;103517;1302;24332;-25
2022/03/16 05:09:12;;;;;;;30.90;17.00;;;;;;;4.04;100.00;99917.42;103492;1301;24253;-25
2022/03/16 05:11:40;;;;;;;25.00;14.50;;;;;;;4.10;100.00;99927.60;103583;1300;24302;-29
2022/03/16 05:14:07;;;;;;;27.30;15.70;;;;;;;4.17;100.00;99941.46;103431;1300;22498;-27
2022/03/16 05:16:33;;;;;;;32.70;14.70;;;;;;;4.20;100.00;99955.10;103634;1299;24413;-26
2022/03/16 05:18:59;;;;;;;29.50;16.10;;;;;;;4.20;100.00;99958.63;103641;1300;24326;-24
2022/03/16 05:21:24;;;;;;;31.60;16.40;;;;;;;4.18;100.00;99953.67;103532;1300;24219;-25
2022/03/16 05:23:50;;;;;;;24.70;15.40;;;;;;;4.19;100.00;99948.10;103511;1302;24195;-25
2022/03/16 05:26:16;;;;;;;24.30;17.10;;;;;;;4.22;100.00;99952.40;103664;1299;24212;-29
2022/03/16 05:28:42;;;;;;;31.90;18.10;;;;;;;4.27;100.00;99958.86;103651;1299;24243;-25
2022/03/16 05:31:07;;;;;;;27.90;16.50;;;;;;;4.29;100.00;99961.54;103633;1300;24222;-25
2022/03/16 05:33:33;;;;;;;25.80;16.50;;;;;;;4.28;100.00;99961.96;103684;1299;24307;-31
2022/03/16 05:35:59;;;;;;;23.50;14.60;;;;;;;4.26;100.00;99956.98;103537;1300;24282;-30
2022/03/16 05:38:24;;;;;;;38.20;18.00;;;;;;;4.27;100.00;99954.45;103657;1299;22505;-25
2022/03/16 05:40:50;;;;;;;31.20;16.20;;;;;;;4.30;100.00;99950.23;103644;1300;24294;-25
2022/03/16 05:43:16;;;;;;;32.50;16.10;;;;;;;4.29;100.00;99954.79;103626;1299;24199;-30
2022/03/16 05:45:41;;;;;;;24.00;16.60;;;;;;;4.30;100.00;99947.55;103624;1299;24373;-29
2022/03/16 05:48:07;;;;;;;29.30;16.10;;;;;;;4.37;100.00;99946.42;103576;1300;24238;-26
2022/03/16 05:50:33;;;;;;;27.90;15.60;;;;;;;4.38;100.00;99939.21;103561;1299;24217;-25
2022/03/16 05:52:59;;;;;;;30.10;14.00;;;;;;;4.48;100.00;99939.33;103648;1299;24135;-25
2022/03/16 05:55:25;;;;;;;29.10;16.90;;;;;;;4.38;100.00;99942.60;103610;1299;24413;-30
2022/03/16 05:57:51;;;;;;;33.20;18.80;;;;;;;4.48;100.00;99944.13;103518;1300;24236;-26
2022/03/16 06:00:18;;;;;;;31.00;18.60;;;;;;;4.54;100.00;99946.96;103663;1302;24386;-25
2022/03/16 06:02:44;;;;;;;28.10;16.10;;;;;;;4.52;100.00;99956.66;103755;1299;24237;-29
2022/03/16 06:05:11;;;;;;;25.80;16.90;;;;;;;4.49;100.00;99959.83;103625;1300;24367;-31
2022/03/16 06:07:37;;;;;;;34.00;20.40;;;;;;;4.54;100.00;99961.13;103683;1300;24222;-29
2022/03/16 06:10:06;;;;;;;23.80;16.60;;;;;;;4.64;100.00;99954.80;103710;1300;24241;-29
2022/03/16 06:12:31;;;;;;;43.40;20.20;;;;;;;4.71;100.00;99956.48;103580;1302;24349;-29
2022/03/16 06:14:57;;;;;;;35.20;19.60;;;;;;;4.70;100.00;99961.23;103684;1300;24231;-27
2022/03/16 06:17:23;;;;;;;33.10;18.70;;;;;;;4.66;100.00;99968.52;103525;1300;22502;-30
2022/03/16 06:19:49;;;;;;;29.50;17.50;;;;;;;4.58;100.00;99975.31;103678;1300;24340;-29
2022/03/16 06:22:15;;;;;;;36.80;16.50;;;;;;;4.65;100.00;99978.74;103580;1300;24349;-29
2022/03/16 06:24:41;;;;;;;31.50;15.90;;;;;;;4.56;100.00;99982.89;103592;1300;24352;-32
2022/03/16 06:27:06;;;;;;;38.70;20.60;;;;;;;4.69;100.00;99978.64;103753;1299;24208;-29
2022/03/16 06:29:32;;;;;;;35.50;20.90;;;;;;;4.78;100.00;99973.23;103695;1300;24255;-29
2022/03/16 06:31:58;;;;;;;43.10;19.50;;;;;;;4.74;100.00;99976.08;103663;1299;24349;-26
2022/03/16 06:34:23;;;;;;;31.40;14.80;;;;;;;4.64;100.00;99982.70;103656;1299;24297;-25
2022/03/16 06:36:50;;;;;;;36.30;20.20;;;;;;;4.78;99.88;99985.62;103540;1301;24171;-32
2022/03/16 06:39:15;;;;;;;41.10;21.00;;;;;;;4.77;99.70;99990.77;103636;1300;24438;-31
2022/03/16 06:41:42;;;;;;;39.40;22.10;;;;;;;4.78;99.83;99988.32;103617;1299;24340;-25
2022/03/16 06:44:08;;;;;;;37.10;21.40;;;;;;;4.84;99.34;99988.09;103565;1300;24246;-27
2022/03/16 06:46:34;;;;;;;26.50;14.90;;;;;;;4.77;99.95;99992.09;103551;1300;24427;-30
2022/03/16 06:48:59;;;;;;;42.50;21.80;;;;;;;4.85;99.68;99985.02;103332;1302;24334;-30
2022/03/16 06:51:25;;;;;;;38.60;19.90;;;;;;;4.82;100.00;99986.34;103420;1300;24212;-29
2022/03/16 06:53:51;;;;;;;46.80;22.80;;;;;;;4.76;100.00;99990.98;103587;1300;24301;-26
2022/03/16 06:56:16;;;;;;;36.70;18.50;;;;;;;4.88;100.00;100003.68;103559;1300;24240;-28
2022/03/16 06:58:42;;;;;;;40.20;21.70;;;;;;;4.95;99.95;100005.83;103670;1300;24202;-26
2022/03/16 07:01:09;;;;;;;44.50;23.90;;;;;;;4.90;99.45;100006.14;103623;1300;24250;-26
2022/03/16 07:03:35;;;;;;;43.60;23.80;;;;;;;5.08;99.29;100020.10;103597;1300;22507;-27
2022/03/16 07:06:02;;;;;;;37.90;20.00;;;;;;;5.17;98.60;100023.08;103496;1300;24240;-28
2022/03/16 07:08:27;;;;;;;47.60;25.40;;;;;;;5.26;98.25;100027.62;103641;1301;24311;-24
2022/03/16 07:10:54;;;;;;;39.60;23.10;;;;;;;5.30;98.14;100021.70;103529;1300;24368;-25
2022/03/16 07:13:20;;;;;;;52.80;24.70;;;;;;;5.29;97.50;100025.14;103570;1300;24222;-25
2022/03/16 07:15:46;;;;;;;38.20;20.60;;;;;;;5.30;97.54;100024.21;103630;1300;24355;-29
2022/03/16 07:18:12;;;;;;;43.30;24.60;;;;;;;5.42;97.37;100029.75;103612;1300;24278;-28
2022/03/16 07:20:38;;;;;;;36.30;19.30;;;;;;;5.50;97.10;100027.77;103557;1300;24225;-26
2022/03/16 07:23:05;;;;;;;46.80;24.70;;;;;;;5.55;96.63;100024.73;103602;1300;24211;-25
2022/03/16 07:25:30;;;;;;;53.10;28.70;;;;;;;5.66;95.72;100028.14;103500;1300;24216;-25
2022/03/16 07:27:56;;;;;;;42.20;21.90;;;;;;;5.74;94.68;100030.42;103514;1300;24217;-25
2022/03/16 07:30:23;;;;;;;49.60;24.70;;;;;;;5.80;93.73;100028.52;103527;1300;24218;-24
2022/03/16 07:32:48;;;;;;;43.30;23.00;;;;;;;6.05;93.21;100032.48;103593;1300;22640;-27
2022/03/16 07:35:14;;;;;;;38.50;21.40;;;;;;;6.21;93.02;100032.71;103580;1300;24246;-25
2022/03/16 07:37:42;;;;;;;38.20;19.70;;;;;;;6.24;91.77;100039.52;103550;1301;24217;-25
2022/03/16 07:40:08;;;;;;;41.20;24.00;;;;;;;6.41;92.20;100042.28;103621;1300;23941;-29
2022/03/16 07:42:35;;;;;;;44.30;22.90;;;;;;;6.53;91.68;100049.45;103568;1300;22601;-25
2022/03/16 07:45:00;;;;;;;34.20;20.90;;;;;;;6.69;89.53;100044.06;103585;1300;23884;-25
2022/03/16 07:47:26;;;;;;;33.30;18.70;;;;;;;6.59;88.62;100050.39;103557;1300;24285;-29
2022/03/16 07:49:53;;;;;;;37.90;21.00;;;;;;;6.55;88.23;100050.96;103562;1301;24315;-29
2022/03/16 07:52:21;;;;;;;35.00;20.80;;;;;;;6.68;87.18;100050.00;103617;1300;24283;-26
2022/03/16 07:54:47;;;;;;;40.30;23.30;;;;;;;6.81;86.84;100055.86;103570;1300;25464;-29
2022/03/16 07:57:12;;;;;;;37.50;22.10;;;;;;;6.85;86.48;100058.16;103495;1300;24294;-29
2022/03/16 07:59:38;;;;;;;33.60;20.80;;;;;;;6.97;86.31;100059.73;103491;1300;24211;-26
2022/03/16 08:02:04;;;;;;;39.10;22.60;;;;;;;7.20;86.92;100060.77;103573;1300;24260;-26
2022/03/16 08:04:30;;;;;;;34.80;23.50;;;;;;;7.61;87.70;100064.52;103562;1300;22510;-32
2022/03/16 08:06:56;;;;;;;35.80;21.50;;;;;;;7.72;84.46;100072.45;103556;1300;24352;-25
2022/03/16 08:09:22;;;;;;;33.20;22.00;;;;;;;7.58;82.72;100076.08;103602;1302;24334;-25
2022/03/16 08:11:47;;;;;;;37.90;22.90;;;;;;;7.70;83.19;100076.31;103526;1300;24364;-28
2022/03/16 08:14:13;;;;;;;43.40;24.60;;;;;;;7.84;83.48;100077.40;103548;1300;24390;-29
2022/03/16 08:16:39;;;;;;;40.00;23.80;;;;;;;7.96;81.28;100082.02;103499;1302;24212;-29
2022/03/16 08:19:05;;;;;;;34.30;19.60;;;;;;;8.03;81.60;100086.22;103537;1300;24211;-31
2022/03/16 08:21:30;;;;;;;35.40;20.70;;;;;;;8.35;80.93;100086.23;103594;1300;24349;-25
2022/03/16 08:23:56;;;;;;;42.60;25.70;;;;;;;8.24;79.43;100083.48;103613;1300;24300;-25
2022/03/16 08:26:23;;;;;;;31.60;19.00;;;;;;;8.52;79.91;100087.94;103537;1300;24247;-25
2022/03/16 08:28:49;;;;;;;35.90;22.20;;;;;;;8.73;79.12;100087.46;103585;1300;22732;-29
2022/03/16 08:31:17;;;;;;;37.50;21.10;;;;;;;8.79;76.70;100090.75;103550;1300;24317;-29
2022/03/16 08:33:43;;;;;;;35.90;22.00;;;;;;;8.68;77.02;100092.29;103459;1302;23789;-28
2022/03/16 08:36:09;;;;;;;39.80;24.50;;;;;;;8.90;77.33;100094.58;103650;1300;24241;-27
2022/03/16 08:38:37;;;;;;;39.10;21.10;;;;;;;9.15;74.97;100089.34;103481;1300;24325;-31
2022/03/16 08:41:04;;;;;;;33.60;20.60;;;;;;;9.05;74.61;100098.36;103603;1301;24285;-25
2022/03/16 08:43:30;;;;;;;39.90;23.20;;;;;;;9.03;75.62;100104.70;103515;1300;24428;-29
2022/03/16 08:45:58;;;;;;;37.70;22.70;;;;;;;9.29;75.23;100104.83;103628;1300;24302;-24
2022/03/16 08:48:25;;;;;;;36.90;22.70;;;;;;;9.39;74.34;100101.38;103616;1300;24345;-29
2022/03/16 08:50:51;;;;;;;33.80;21.80;;;;;;;9.63;73.25;100107.98;103587;1301;24219;-29
2022/03/16 08:53:16;;;;;;;43.70;21.50;;;;;;;9.84;72.48;100107.46;103557;1300;24282;-29
2022/03/16 08:55:43;;;;;;;40.10;21.80;;;;;;;10.01;72.61;100111.77;103528;1300;24288;-25
2022/03/16 08:58:09;;;;;;;37.40;19.20;;;;;;;10.14;70.05;100111.54;103605;1300;24155;-25
2022/03/16 09:00:34;;;;;;;28.80;19.60;;;;;;;9.93;71.07;100114.84;103613;1300;24338;-25
2022/03/16 09:03:02;;;;;;;27.50;17.60;;;;;;;9.99;70.03;100119.83;103472;1302;24223;-29
2022/03/16 09:05:29;;;;;;;25.50;15.50;;;;;;;10.01;69.12;100126.94;103539;1300;24242;-25
2022/03/16 09:07:54;;;;;;;24.60;16.30;;;;;;;9.98;68.73;100130.05;103609;1300;24240;-25
2022/03/16 09:10:20;;;;;;;34.40;20.40;;;;;;;9.85;68.99;100138.64;103510;1302;24285;-27
2022/03/16 09:12:46;;;;;;;34.90;19.60;;;;;;;9.98;68.37;100144.09;103555;1300;24272;-27
2022/03/16 09:15:12;;;;;;;37.70;21.60;;;;;;;9.86;69.20;100146.40;103525;1301;22551;-29
2022/03/16 09:17:37;;;;;;;29.70;18.70;;;;;;;10.07;68.37;100146.86;103491;1300;24301;-25
2022/03/16 09:20:04;;;;;;;33.10;19.60;;;;;;;9.92;67.62;100142.67;103503;1303;24300;-25
2022/03/16 09:22:30;;;;;;;38.30;23.40;;;;;;;10.19;66.51;100145.61;103621;1300;24240;-29
2022/03/16 09:24:56;;;;;;;33.80;21.20;;;;;;;10.03;66.20;100152.48;103557;1300;22846;-29
2022/03/16 09:27:23;;;;;;;33.10;18.70;;;;;;;10.08;66.30;100156.09;103561;1300;22507;-29
2022/03/16 09:29:49;;;;;;;32.30;19.00;;;;;;;10.04;66.36;100161.30;103490;1302;24229;-26
2022/03/16 09:32:15;;;;;;;30.70;19.90;;;;;;;10.19;65.49;100160.15;103561;1300;25220;-25
2022/03/16 09:34:42;;;;;;;31.70;17.30;;;;;;;10.27;66.55;100165.20;103608;1300;24245;-29
2022/03/16 09:37:09;;;;;;;27.90;18.60;;;;;;;10.53;66.38;100163.63;103520;1300;24305;-28
2022/03/16 09:39:36;;;;;;;27.00;18.60;;;;;;;10.84;64.99;100164.50;103535;1303;22743;-28
2022/03/16 09:42:03;;;;;;;32.00;19.70;;;;;;;10.98;64.77;100168.09;103562;1303;24284;-24
2022/03/16 09:44:30;;;;;;;26.20;16.90;;;;;;;11.26;64.09;100172.32;103598;1299;24281;-30
2022/03/16 09:46:57;;;;;;;29.00;18.60;;;;;;;11.42;63.03;100170.89;103713;1299;24354;-24
2022/03/16 09:49:23;;;;;;;24.00;17.20;;;;;;;11.45;62.21;100173.48;103563;1300;24362;-23
2022/03/16 09:51:50;;;;;;;24.20;15.10;;;;;;;11.50;61.52;100178.23;103580;1302;22511;-29
2022/03/16 09:54:15;;;;;;;27.00;16.30;;;;;;;11.55;61.69;100174.35;103554;1301;24344;-28
2022/03/16 09:56:43;;;;;;;25.80;16.60;;;;;;;11.79;60.84;100176.09;103604;1300;24301;-28
2022/03/16 09:59:10;;;;;;;25.00;16.10;;;;;;;11.83;59.55;100174.53;103753;1300;22767;-28
2022/03/16 10:01:36;;;;;;;20.90;13.90;;;;;;;11.84;59.52;100185.64;103483;1302;24308;-28
2022/03/16 10:04:06;;;;;;;26.60;17.30;;;;;;;11.75;59.73;100191.73;103602;1300;24163;-28
2022/03/16 10:06:35;;;;;;;20.60;15.50;;;;;;;11.80;59.69;100188.42;103554;1300;24312;-30
2022/03/16 10:14:23;;;;;;;19.80;12.10;;;;;;;11.61;58.04;100188.51;103704;1299;24268;-24
2022/03/16 10:17:43;;;;;;;27.80;13.50;;;;;;;11.41;58.44;100191.44;103577;1303;24305;-29
2022/03/16 10:19:43;;;;;;;19.20;11.70;;;;;;;11.29;59.29;100202.04;103652;1300;24253;-28
2022/03/16 10:22:09;;;;;;;21.00;12.90;;;;;;;11.54;58.18;100201.77;103581;1301;24299;-28
2022/03/16 10:24:35;;;;;;;12.70;9.70;;;;;;;11.45;58.53;100199.77;103557;1302;24300;-23
2022/03/16 10:27:01;;;;;;;19.50;14.10;;;;;;;11.62;58.62;100202.93;103500;1302;24219;-30
2022/03/16 10:29:27;;;;;;;23.40;14.60;;;;;;;11.83;58.21;100211.00;103559;1299;24288;-25
2022/03/16 10:31:59;;;;;;;23.50;14.10;;;;;;;12.04;56.45;100209.17;103682;1300;24333;-25
2022/03/16 10:34:25;;;;;;;18.00;14.60;;;;;;;12.00;56.02;100217.96;103716;1299;22497;-28
2022/03/16 10:36:52;;;;;;;17.60;12.30;;;;;;;12.29;55.45;100218.90;103657;1300;24216;-24
2022/03/16 10:39:19;;;;;;;27.80;17.40;;;;;;;12.45;55.10;100221.45;103477;1302;24324;-25
2022/03/16 10:46:46;;;;;;;22.20;15.60;;;;;;;12.10;56.37;100225.94;103552;1300;24373;-28
2022/03/16 10:49:12;;;;;;;24.60;16.60;;;;;;;12.24;56.06;100229.43;103642;1299;24202;-28
2022/03/16 10:51:39;;;;;;;18.70;12.60;;;;;;;12.37;55.86;100231.73;103651;1299;24218;-27
2022/03/16 10:54:05;;;;;;;21.20;16.90;;;;;;;12.32;56.00;100237.34;103560;1300;24259;-24
2022/03/16 10:56:32;;;;;;;33.40;13.00;;;;;;;12.64;54.98;100242.08;103623;1300;24247;-24
2022/03/16 10:58:59;;;;;;;21.80;15.90;;;;;;;12.74;54.06;100239.19;103523;1300;24006;-27
2022/03/16 11:01:26;;;;;;;21.30;15.80;;;;;;;12.74;54.34;100239.02;103584;1301;24237;-28
2022/03/16 11:03:55;;;;;;;34.10;15.30;;;;;;;12.76;53.87;100237.41;103676;1299;24318;-26
2022/03/16 11:06:21;;;;;;;19.10;14.20;;;;;;;12.61;53.09;100242.59;103592;1302;23076;-28
2022/03/16 11:08:48;;;;;;;19.80;13.70;;;;;;;12.38;53.15;100244.58;103516;1302;24248;-23
2022/03/16 11:13:45;;;;;;;22.30;15.20;;;;;;;12.54;52.92;100247.23;103766;1300;25548;-24
2022/03/16 11:16:11;;;;;;;17.60;13.20;;;;;;;13.11;51.87;100244.23;103648;1299;24330;-27
2022/03/16 11:18:37;;;;;;;22.10;13.90;;;;;;;13.01;51.90;100249.14;103655;1300;24259;-24